Aviation Digital Data Service (ADDS)

Output produced by METARs form (1718 UTC 18 January 2018)
found at http://aviationweather.gov/adds/metars/
 
KILG 181120Z 1812/1912 32008KT P6SM SKC 
     FM181600 30012G19KT P6SM SKC 
     FM182300 30008KT P6SM SKC 
     FM190200 VRB03KT P6SM SKC